Time;durP1;ratioP1;P1;durP2;ratioP2;P2;SDS_P1;SDS_P2;PMS_P1;PMS_P2;Temp;Humidity;BMP_temperature;BMP_pressure;BME280_temperature;BME280_humidity;BME280_pressure;Samples;Min_cycle;Max_cycle;Signal;HPM_P1;HPM_P2
2023/01/20 07:30:26;;;;;;;;;;;;;;;18.96;26.57;95169.94;10516429;27;4125;-56
2023/01/20 07:35:27;;;;;;;;;;;;;;;18.71;28.14;95187.75;10488523;28;2043;-52
2023/01/20 07:40:27;;;;;;;;;;;;;;;18.69;29.55;95188.03;10458902;28;2010;-49
2023/01/20 07:45:27;;;;;;;;;;;;;;;18.84;30.06;95201.03;10448967;28;2054;-54
2023/01/20 07:50:27;;;;;;;;;;;;;;;18.90;30.07;95202.56;10452493;28;2081;-47
2023/01/20 07:55:28;;;;;;;;;;;;;;;18.95;29.72;95214.88;10461459;28;2174;-51
2023/01/20 08:00:28;;;;;;;;;;;;;;;19.00;29.39;95222.72;10459051;28;2081;-53
2023/01/20 08:05:28;;;;;;;;;;;;;;;19.04;29.18;95221.88;10463106;28;2077;-49
2023/01/20 08:10:29;;;;;;;;;;;;;;;19.05;29.32;95220.03;10458299;28;2002;-50
2023/01/20 08:15:29;;;;;;;;;;;;;;;19.05;29.36;95223.44;10458171;28;2055;-53
2023/01/20 08:20:29;;;;;;;;;;;;;;;19.04;29.75;95234.25;10459529;28;1934;-55
2023/01/20 08:25:29;;;;;;;;;;;;;;;19.00;29.32;95238.47;10457095;28;2115;-60
2023/01/20 08:30:30;;;;;;;;;;;;;;;18.99;29.28;95236.91;10451787;28;2049;-50
2023/01/20 08:35:30;;;;;;;;;;;;;;;18.98;29.88;95243.97;10445788;28;1983;-51
2023/01/20 08:40:30;;;;;;;;;;;;;;;18.95;29.72;95256.88;10440092;28;2041;-51
2023/01/20 08:45:30;;;;;;;;;;;;;;;18.91;29.99;95263.75;10422050;28;2054;-57
2023/01/20 08:50:31;;;;;;;;;;;;;;;18.85;30.58;95276.13;10428828;28;2058;-57
2023/01/20 08:55:31;;;;;;;;;;;;;;;18.83;30.04;95274.84;10436426;28;2039;-54
2023/01/20 09:00:31;;;;;;;;;;;;;;;18.77;30.16;95279.34;10427760;28;1973;-58
2023/01/20 09:05:34;;;;;;;;;;;;;;;18.74;30.18;95285.13;10428400;28;2055;-59
2023/01/20 09:10:34;;;;;;;;;;;;;;;18.68;30.54;95294.88;10433730;28;2018;-60
2023/01/20 09:15:34;;;;;;;;;;;;;;;18.68;30.32;95307.22;10433629;28;2023;-57
2023/01/20 09:20:36;;;;;;;;;;;;;;;18.66;30.22;95309.34;10434829;28;2324;-56
2023/01/20 09:25:36;;;;;;;;;;;;;;;18.61;30.28;95315.41;10428844;28;2135;-58
2023/01/20 09:30:36;;;;;;;;;;;;;;;18.56;30.48;95315.44;10426156;28;2042;-60
2023/01/20 09:35:36;;;;;;;;;;;;;;;18.58;30.13;95323.03;10419780;28;2067;-59
2023/01/20 09:46:13;;;;;;;;;;;;;;;18.54;30.38;95340.38;10441587;28;2152;-60
2023/01/20 09:56:36;;;;;;;;;;;;;;;18.54;30.24;95337.75;10438771;28;2037;-58
2023/01/20 10:01:47;;;;;;;;;;;;;;;18.56;29.74;95340.91;10413177;28;2053;-52
2023/01/20 10:06:54;;;;;;;;;;;;;;;18.56;30.53;95341.69;10451788;28;2093;-56
2023/01/20 10:11:57;;;;;;;;;;;;;;;18.53;30.59;95336.19;10421933;28;2039;-58
2023/01/20 10:17:09;;;;;;;;;;;;;;;18.53;30.70;95341.44;10415933;28;2078;-58
2023/01/20 10:22:15;;;;;;;;;;;;;;;18.54;30.61;95333.31;10423027;28;2065;-55
2023/01/20 10:27:15;;;;;;;;;;;;;;;18.55;30.48;95350.59;10419144;28;2236;-58
2023/01/20 10:32:35;;;;;;;;;;;;;;;18.55;30.61;95349.81;10430074;28;2098;-59
2023/01/20 10:37:35;;;;;;;;;;;;;;;18.57;30.71;95342.44;10422947;28;2083;-57
2023/01/20 10:42:36;;;;;;;;;;;;;;;18.61;31.06;95341.66;10415965;28;2057;-58
2023/01/20 10:47:56;;;;;;;;;;;;;;;18.68;31.00;95346.59;10425882;28;2063;-56
2023/01/20 10:53:11;;;;;;;;;;;;;;;18.78;31.11;95348.38;10417529;28;2012;-54
2023/01/20 10:58:17;;;;;;;;;;;;;;;18.82;31.07;95344.94;10418925;28;2064;-50
2023/01/20 11:03:18;;;;;;;;;;;;;;;18.92;31.39;95350.13;10418003;28;2005;-53
2023/01/20 11:08:23;;;;;;;;;;;;;;;19.07;31.27;95346.63;10414041;28;2277;-54
2023/01/20 11:13:23;;;;;;;;;;;;;;;19.16;32.21;95345.78;10418482;28;2007;-55
2023/01/20 11:18:26;;;;;;;;;;;;;;;19.28;32.55;95343.59;10423965;28;2055;-52
2023/01/20 11:23:29;;;;;;;;;;;;;;;19.38;32.18;95345.38;10428764;28;2040;-52
2023/01/20 11:28:32;;;;;;;;;;;;;;;19.44;32.37;95344.28;10421975;28;1995;-55
2023/01/20 11:33:32;;;;;;;;;;;;;;;19.45;31.71;95344.00;10412070;28;2068;-52
2023/01/20 11:38:42;;;;;;;;;;;;;;;19.49;31.86;95345.00;10415603;28;2103;-54
2023/01/20 11:43:43;;;;;;;;;;;;;;;19.59;31.62;95348.63;10419273;28;1991;-52
2023/01/20 11:48:43;;;;;;;;;;;;;;;19.64;31.49;95341.47;10420961;28;2035;-54
2023/01/20 11:53:45;;;;;;;;;;;;;;;19.70;31.29;95350.88;10427080;28;2322;-53
2023/01/20 11:58:55;;;;;;;;;;;;;;;19.81;31.41;95346.31;10416945;28;2346;-51
2023/01/20 12:04:11;;;;;;;;;;;;;;;19.81;31.31;95346.31;10423034;28;2225;-53
2023/01/20 12:09:14;;;;;;;;;;;;;;;19.87;31.18;95345.19;10428722;28;2325;-57
2023/01/20 12:14:23;;;;;;;;;;;;;;;19.94;31.13;95345.66;10424744;28;2280;-62
2023/01/20 12:19:31;;;;;;;;;;;;;;;20.00;30.71;95347.19;10426537;28;2304;-60
2023/01/20 12:25:06;;;;;;;;;;;;;;;20.04;30.89;95345.56;10436034;28;2317;-59
2023/01/20 12:29:59;;;;;;;;;;;;;;;20.07;30.71;95360.78;10431296;28;2312;-59
2023/01/20 12:34:59;;;;;;;;;;;;;;;20.08;31.05;95352.63;10436561;28;2330;-56
2023/01/20 12:40:06;;;;;;;;;;;;;;;20.13;30.43;95357.03;10435068;28;2707;-52
2023/01/20 12:45:38;;;;;;;;;;;;;;;20.15;30.85;95360.19;10423927;28;2254;-52
2023/01/20 12:50:57;;;;;;;;;;;;;;;20.18;30.83;95372.75;10406041;28;2256;-56
2023/01/20 12:56:14;;;;;;;;;;;;;;;20.25;31.54;95365.34;10426264;28;2289;-51
2023/01/20 13:01:27;;;;;;;;;;;;;;;20.40;31.45;95367.81;10439114;28;2325;-59
2023/01/20 13:06:27;;;;;;;;;;;;;;;20.40;31.47;95372.31;10443866;28;2351;-58
2023/01/20 13:11:27;;;;;;;;;;;;;;;20.43;31.90;95371.72;10426124;28;2333;-62
2023/01/20 13:16:34;;;;;;;;;;;;;;;20.59;32.61;95373.09;10427122;28;2312;-59
2023/01/20 13:21:34;;;;;;;;;;;;;;;20.76;33.44;95379.47;10423611;28;2275;-60
2023/01/20 13:26:34;;;;;;;;;;;;;;;20.82;32.76;95382.81;10424727;28;2281;-59
2023/01/20 13:31:42;;;;;;;;;;;;;;;20.88;32.99;95382.47;10429037;28;2392;-59
2023/01/20 13:36:53;;;;;;;;;;;;;;;20.94;33.09;95396.38;10421754;28;2243;-55
2023/01/20 13:41:53;;;;;;;;;;;;;;;20.95;32.13;95390.03;10443416;28;2333;-53
2023/01/20 13:46:54;;;;;;;;;;;;;;;21.04;32.53;95394.41;10429295;28;2298;-53
2023/01/20 13:51:54;;;;;;;;;;;;;;;21.09;32.80;95401.47;10440806;28;2405;-56
2023/01/20 13:57:13;;;;;;;;;;;;;;;20.98;30.99;95408.69;10441827;28;2334;-51
2023/01/20 14:02:19;;;;;;;;;;;;;;;20.88;31.04;95408.03;10440406;28;2317;-51
2023/01/20 14:07:29;;;;;;;;;;;;;;;20.86;30.34;95412.81;10429409;28;2316;-53
2023/01/20 14:12:29;;;;;;;;;;;;;;;20.82;29.94;95417.88;10417946;28;2265;-53
2023/01/20 14:17:30;;;;;;;;;;;;;;;20.80;29.43;95422.63;10428275;28;2350;-51
2023/01/20 14:22:30;;;;;;;;;;;;;;;20.82;29.11;95422.34;10424877;28;2365;-52
2023/01/20 14:27:34;;;;;;;;;;;;;;;20.76;29.74;95426.91;10423345;28;2379;-49
2023/01/20 14:32:34;;;;;;;;;;;;;;;19.63;27.49;95439.03;10423896;28;2300;-52
2023/01/20 14:37:35;;;;;;;;;;;;;;;18.98;27.79;95443.59;10420911;28;2211;-67
2023/01/20 14:42:37;;;;;;;;;;;;;;;18.40;27.92;95458.22;10428661;28;2331;-50
2023/01/20 14:47:37;;;;;;;;;;;;;;;19.06;29.72;95456.16;10429637;28;2313;-52
2023/01/20 14:52:37;;;;;;;;;;;;;;;19.39;29.81;95458.13;10424767;28;2270;-50
2023/01/20 14:57:43;;;;;;;;;;;;;;;19.43;29.59;95469.66;10421191;28;2373;-52
2023/01/20 15:02:45;;;;;;;;;;;;;;;19.43;29.35;95472.28;10426586;28;2271;-51
2023/01/20 15:07:46;;;;;;;;;;;;;;;19.47;29.34;95475.94;10428264;28;2355;-53
2023/01/20 15:12:46;;;;;;;;;;;;;;;19.58;29.53;95481.16;10424143;28;2324;-65
2023/01/20 15:18:05;;;;;;;;;;;;;;;19.61;28.90;95481.38;10423494;28;2266;-56
2023/01/20 15:23:11;;;;;;;;;;;;;;;19.67;29.27;95488.19;10419651;28;2348;-53
2023/01/20 15:28:40;;;;;;;;;;;;;;;19.72;29.54;95493.38;10432254;28;2681;-52
2023/01/20 15:33:41;;;;;;;;;;;;;;;19.76;29.29;95496.28;10419891;28;2227;-58
2023/01/20 15:38:41;;;;;;;;;;;;;;;19.78;29.22;95494.94;10421778;28;2314;-57
2023/01/20 15:43:43;;;;;;;;;;;;;;;19.78;29.15;95496.78;10423345;28;2496;-64
2023/01/20 15:48:44;;;;;;;;;;;;;;;19.81;28.90;95506.75;10422994;28;2267;-63
2023/01/20 15:53:44;;;;;;;;;;;;;;;19.81;28.91;95507.53;10431335;28;2276;-63
2023/01/20 15:58:44;;;;;;;;;;;;;;;19.83;28.76;95515.16;10432856;28;2334;-63
2023/01/20 16:03:45;;;;;;;;;;;;;;;19.86;28.90;95514.63;10421970;28;2476;-54
2023/01/20 16:08:46;;;;;;;;;;;;;;;19.86;28.60;95522.50;10439901;28;2335;-49
2023/01/20 16:13:46;;;;;;;;;;;;;;;19.84;28.41;95525.41;10425284;28;2413;-51
2023/01/20 16:18:46;;;;;;;;;;;;;;;19.92;28.51;95529.28;10424788;28;2349;-54
2023/01/20 16:23:46;;;;;;;;;;;;;;;20.03;28.18;95530.81;10428108;28;2381;-54
2023/01/20 16:28:49;;;;;;;;;;;;;;;20.17;28.70;95534.38;10425649;28;2349;-52
2023/01/20 16:33:53;;;;;;;;;;;;;;;20.26;27.80;95538.00;10429318;28;2304;-54
2023/01/20 16:38:54;;;;;;;;;;;;;;;20.34;27.39;95549.78;10430401;28;2263;-52
2023/01/20 16:43:54;;;;;;;;;;;;;;;20.38;27.00;95548.94;10425309;28;2389;-54
2023/01/20 16:49:00;;;;;;;;;;;;;;;20.46;26.89;95537.84;10426276;28;2370;-53
2023/01/20 16:54:00;;;;;;;;;;;;;;;20.52;26.46;95549.09;10419434;28;2271;-51
2023/01/20 16:59:01;;;;;;;;;;;;;;;20.55;26.73;95551.16;10428018;28;2307;-53
2023/01/20 17:04:01;;;;;;;;;;;;;;;20.60;26.19;95557.19;10425331;28;2471;-49
2023/01/20 17:09:02;;;;;;;;;;;;;;;20.63;26.11;95564.50;10430571;28;2330;-50
2023/01/20 17:14:04;;;;;;;;;;;;;;;20.69;26.42;95573.94;10434201;28;2255;-56
2023/01/20 17:19:04;;;;;;;;;;;;;;;20.71;26.32;95573.69;10430337;28;2420;-53
2023/01/20 17:24:04;;;;;;;;;;;;;;;20.74;26.23;95581.00;10431509;28;2419;-55
2023/01/20 17:29:05;;;;;;;;;;;;;;;20.86;27.50;95568.25;10425017;28;2318;-53
2023/01/20 17:34:06;;;;;;;;;;;;;;;20.88;27.89;95581.91;10431748;28;2482;-55
2023/01/20 17:39:06;;;;;;;;;;;;;;;20.77;27.50;95586.50;10432102;28;2367;-51
2023/01/20 17:44:06;;;;;;;;;;;;;;;20.66;27.40;95595.56;10429569;28;2355;-50
2023/01/20 17:49:07;;;;;;;;;;;;;;;20.60;27.57;95601.94;10428928;28;2328;-53
2023/01/20 17:54:07;;;;;;;;;;;;;;;20.51;27.57;95602.81;10431773;28;2279;-49
2023/01/20 17:59:08;;;;;;;;;;;;;;;20.45;27.91;95604.72;10430266;28;2343;-52
2023/01/20 18:04:09;;;;;;;;;;;;;;;20.37;27.64;95617.66;10425262;28;2304;-48
2023/01/20 18:09:10;;;;;;;;;;;;;;;20.47;28.60;95614.97;10428967;28;2362;-51
2023/01/20 18:14:10;;;;;;;;;;;;;;;20.38;28.85;95617.38;10420287;28;2282;-51
2023/01/20 18:19:11;;;;;;;;;;;;;;;20.30;28.79;95625.88;10420682;28;2330;-54
2023/01/20 18:24:11;;;;;;;;;;;;;;;20.26;29.36;95628.28;10417557;28;2306;-50
2023/01/20 18:29:12;;;;;;;;;;;;;;;20.22;29.20;95629.09;10412932;28;2357;-53
2023/01/20 18:34:14;;;;;;;;;;;;;;;20.20;29.35;95639.09;10414321;28;2345;-50
2023/01/20 18:39:18;;;;;;;;;;;;;;;20.14;29.34;95634.91;10421454;28;2282;-50
2023/01/20 18:44:18;;;;;;;;;;;;;;;20.12;29.54;95640.44;10410334;28;2304;-53
2023/01/20 18:49:19;;;;;;;;;;;;;;;20.08;29.67;95642.06;10415567;28;2269;-53
2023/01/20 18:54:23;;;;;;;;;;;;;;;20.07;29.64;95640.47;10417691;28;2278;-53
2023/01/20 18:59:24;;;;;;;;;;;;;;;20.08;29.91;95646.53;10421150;28;2276;-55
2023/01/20 19:04:24;;;;;;;;;;;;;;;20.10;29.97;95644.41;10409669;28;2265;-53
2023/01/20 19:09:24;;;;;;;;;;;;;;;20.19;29.79;95648.88;10447813;28;2332;-50
2023/01/20 19:14:24;;;;;;;;;;;;;;;20.26;29.60;95651.16;10416032;28;2324;-53
2023/01/20 19:19:25;;;;;;;;;;;;;;;20.33;29.25;95649.03;10423424;28;2322;-52
2023/01/20 19:24:27;;;;;;;;;;;;;;;20.41;29.41;95651.06;10416910;28;2290;-55
2023/01/20 19:29:29;;;;;;;;;;;;;;;20.48;29.25;95656.03;10422565;28;2306;-56
2023/01/20 19:34:29;;;;;;;;;;;;;;;20.42;29.34;95652.66;10423021;28;2276;-50
2023/01/20 19:39:29;;;;;;;;;;;;;;;20.35;29.01;95660.06;10420933;28;2310;-51
2023/01/20 19:44:29;;;;;;;;;;;;;;;20.34;30.01;95666.38;10421687;28;2279;-51
2023/01/20 19:49:30;;;;;;;;;;;;;;;20.24;30.69;95671.72;10429392;28;2323;-51
2023/01/20 19:54:32;;;;;;;;;;;;;;;20.23;29.97;95670.16;10431812;28;2283;-53
2023/01/20 19:59:32;;;;;;;;;;;;;;;20.32;30.11;95673.00;10424760;28;2235;-52
2023/01/20 20:04:32;;;;;;;;;;;;;;;20.28;30.22;95681.44;10425550;28;2340;-52
2023/01/20 20:09:34;;;;;;;;;;;;;;;20.21;30.19;95682.81;10431096;28;2415;-51
2023/01/20 20:14:34;;;;;;;;;;;;;;;20.16;30.12;95683.59;10422619;28;2291;-51
2023/01/20 20:19:34;;;;;;;;;;;;;;;20.13;29.87;95676.22;10434037;28;2254;-50
2023/01/20 20:24:34;;;;;;;;;;;;;;;20.09;30.07;95682.31;10432778;28;2348;-54
2023/01/20 20:29:35;;;;;;;;;;;;;;;20.06;30.24;95691.53;10424271;28;2521;-55
2023/01/20 20:34:35;;;;;;;;;;;;;;;20.02;29.83;95694.97;10440178;28;2307;-53
2023/01/20 20:39:35;;;;;;;;;;;;;;;20.02;29.83;95687.09;10437514;28;2341;-52
2023/01/20 20:44:35;;;;;;;;;;;;;;;19.99;30.20;95698.16;10441395;28;2248;-48
2023/01/20 20:49:36;;;;;;;;;;;;;;;19.95;30.28;95694.47;10438751;28;2368;-51
2023/01/20 20:54:36;;;;;;;;;;;;;;;19.92;30.10;95700.28;10440776;28;2307;-50
2023/01/20 20:59:36;;;;;;;;;;;;;;;19.87;30.21;95708.97;10435090;28;2330;-49
2023/01/20 21:04:37;;;;;;;;;;;;;;;19.81;30.13;95704.00;10443380;28;2430;-50
2023/01/20 21:09:37;;;;;;;;;;;;;;;19.83;30.56;95705.31;10432565;28;2441;-49
2023/01/20 21:14:37;;;;;;;;;;;;;;;19.75;30.57;95712.97;10436526;28;2430;-49
2023/01/20 21:19:38;;;;;;;;;;;;;;;19.67;30.55;95710.91;10435043;28;2333;-52
2023/01/20 21:24:38;;;;;;;;;;;;;;;19.61;30.63;95704.88;10438662;28;2286;-54
2023/01/20 21:29:38;;;;;;;;;;;;;;;19.59;31.01;95712.25;10435539;28;2262;-51
2023/01/20 21:34:39;;;;;;;;;;;;;;;19.57;30.25;95713.56;10428986;28;2277;-50
2023/01/20 21:39:39;;;;;;;;;;;;;;;19.51;30.90;95717.28;10432112;28;2324;-50
2023/01/20 21:44:41;;;;;;;;;;;;;;;19.45;30.85;95717.28;10428732;28;2495;-51
2023/01/20 21:55:01;;;;;;;;;;;;;;;19.40;30.83;95719.94;10424416;28;2490;-48
2023/01/20 22:00:02;;;;;;;;;;;;;;;19.37;30.61;95724.94;10438100;28;2283;-49
2023/01/20 22:05:02;;;;;;;;;;;;;;;19.35;30.75;95727.81;10428261;28;2325;-54
2023/01/20 22:10:03;;;;;;;;;;;;;;;19.32;31.01;95733.59;10418989;28;2252;-53
2023/01/20 22:15:03;;;;;;;;;;;;;;;19.29;30.88;95734.09;10426442;28;2350;-53
2023/01/20 22:20:05;;;;;;;;;;;;;;;19.29;30.62;95731.47;10438998;28;2350;-49
2023/01/20 22:25:05;;;;;;;;;;;;;;;19.28;30.53;95740.41;10443214;28;2301;-54
2023/01/20 22:30:06;;;;;;;;;;;;;;;19.26;30.65;95744.38;10437539;28;2318;-51
2023/01/20 22:35:07;;;;;;;;;;;;;;;19.23;30.71;95745.66;10440794;28;2255;-54
2023/01/20 22:40:07;;;;;;;;;;;;;;;19.23;30.73;95735.16;10438602;28;2335;-50
2023/01/20 22:45:08;;;;;;;;;;;;;;;19.20;30.61;95745.41;10433894;28;2298;-52
2023/01/20 22:50:09;;;;;;;;;;;;;;;19.20;30.61;95746.22;10433196;28;2397;-52
2023/01/20 22:55:09;;;;;;;;;;;;;;;19.20;30.74;95742.78;10438280;28;2363;-49
2023/01/20 23:00:11;;;;;;;;;;;;;;;19.16;30.67;95750.44;10434147;28;2383;-50
2023/01/20 23:05:11;;;;;;;;;;;;;;;19.11;31.08;95750.41;10438510;28;2355;-49
2023/01/20 23:10:44;;;;;;;;;;;;;;;19.10;30.65;95751.44;10434274;28;2314;-54
2023/01/20 23:15:32;;;;;;;;;;;;;;;19.08;30.66;95750.94;10436743;28;2312;-52
2023/01/20 23:20:32;;;;;;;;;;;;;;;19.04;30.96;95755.13;10423515;28;2309;-50
2023/01/20 23:25:32;;;;;;;;;;;;;;;19.02;30.75;95757.25;10433565;28;2328;-53
2023/01/20 23:30:32;;;;;;;;;;;;;;;19.02;30.79;95749.34;10422032;28;2431;-52
2023/01/20 23:35:33;;;;;;;;;;;;;;;18.97;31.66;95746.75;10418071;28;2450;-53
2023/01/20 23:40:34;;;;;;;;;;;;;;;18.98;31.48;95740.44;10415136;28;2263;-52
2023/01/20 23:45:34;;;;;;;;;;;;;;;18.94;31.59;95747.25;10417762;28;2296;-53
2023/01/20 23:50:34;;;;;;;;;;;;;;;18.92;31.38;95754.63;10421355;28;2348;-53
2023/01/20 23:55:35;;;;;;;;;;;;;;;18.91;31.56;95757.50;10420092;28;2266;-54
